Time;durP1;ratioP1;P1;durP2;ratioP2;P2;SDS_P1;SDS_P2;PMS_P1;PMS_P2;Temp;Humidity;BMP_temperature;BMP_pressure;BME280_temperature;BME280_humidity;BME280_pressure;Samples;Min_cycle;Max_cycle;Signal;HPM_P1;HPM_P2
2022/09/07 00:00:51;;;;;;;8.90;3.47;;;22.90;68.90;;;;;;6109136;23;20246;-95
2022/09/07 00:03:19;;;;;;;5.77;2.30;;;22.80;69.70;;;;;;6099071;23;20204;-94
2022/09/07 00:05:50;;;;;;;8.30;3.40;;;22.80;69.10;;;;;;6100640;23;20222;-96
2022/09/07 00:08:24;;;;;;;3.57;2.33;;;22.70;69.50;;;;;;6101092;23;20198;-94
2022/09/07 00:10:54;;;;;;;8.07;3.23;;;22.80;70.10;;;;;;6099067;23;20190;-95
2022/09/07 00:13:25;;;;;;;5.30;2.90;;;22.80;69.70;;;;;;6098903;23;20240;-95
2022/09/07 00:15:58;;;;;;;10.77;4.33;;;22.70;69.70;;;;;;6098327;23;20238;-95
2022/09/07 00:18:27;;;;;;;5.47;3.03;;;22.70;70.40;;;;;;6097670;23;20692;-95
2022/09/07 00:21:00;;;;;;;4.87;2.73;;;22.70;70.10;;;;;;6097353;23;20266;-93
2022/09/07 00:26:14;;;;;;;7.37;3.77;;;22.70;70.30;;;;;;6094523;23;20184;-94
2022/09/07 00:28:49;;;;;;;5.70;3.23;;;22.70;70.40;;;;;;6097572;23;20187;-95
2022/09/07 00:34:43;;;;;;;7.53;3.60;;;22.60;70.50;;;;;;6092842;23;20175;-95
2022/09/07 00:37:12;;;;;;;11.20;4.90;;;22.60;70.20;;;;;;6096143;23;20185;-95
2022/09/07 00:39:40;;;;;;;4.73;3.13;;;22.60;70.20;;;;;;6096918;23;20200;-95
2022/09/07 00:42:08;;;;;;;7.43;3.93;;;22.60;70.60;;;;;;6096455;23;20194;-95
2022/09/07 00:45:14;;;;;;;9.07;3.23;;;22.60;70.40;;;;;;6101390;23;20586;-94
2022/09/07 00:47:51;;;;;;;7.50;3.50;;;22.50;71.10;;;;;;6099183;23;20259;-94
2022/09/07 00:50:23;;;;;;;6.53;3.50;;;22.50;70.30;;;;;;6098041;23;20245;-93
2022/09/07 00:53:26;;;;;;;8.47;4.20;;;22.50;70.20;;;;;;6102315;23;20199;-95
2022/09/07 00:56:01;;;;;;;7.27;3.97;;;22.40;70.30;;;;;;6090193;23;20183;-94
2022/09/07 00:58:31;;;;;;;7.67;3.77;;;22.40;70.30;;;;;;6100972;23;20201;-94
2022/09/07 01:00:59;;;;;;;13.73;5.47;;;22.40;70.40;;;;;;6099670;23;20177;-94
2022/09/07 01:03:33;;;;;;;7.93;5.03;;;22.30;69.90;;;;;;6098865;23;20177;-93
2022/09/07 01:06:07;;;;;;;11.63;5.67;;;22.40;71.00;;;;;;6097249;23;20171;-94
2022/09/07 01:08:35;;;;;;;8.13;4.27;;;22.30;71.00;;;;;;6099671;23;20194;-94
2022/09/07 01:11:03;;;;;;;11.70;5.90;;;22.20;71.00;;;;;;6101697;23;20167;-95
2022/09/07 01:13:32;;;;;;;9.73;4.60;;;22.20;71.30;;;;;;6072730;23;20231;-94
2022/09/07 01:16:12;;;;;;;7.33;4.60;;;22.10;71.60;;;;;;6100285;23;20267;-95
2022/09/07 01:18:55;;;;;;;7.37;4.50;;;22.10;72.80;;;;;;6098040;23;20182;-95
2022/09/07 01:21:47;;;;;;;17.83;7.03;;;22.10;72.60;;;;;;6098347;23;20190;-94
2022/09/07 01:24:51;;;;;;;9.53;6.07;;;22.10;73.40;;;;;;6098081;23;20163;-95
2022/09/07 01:27:52;;;;;;;9.67;5.77;;;22.10;73.80;;;;;;6095357;23;20178;-94
2022/09/07 01:30:24;;;;;;;9.87;6.03;;;22.10;73.70;;;;;;6098593;23;20518;-95
2022/09/07 01:33:33;;;;;;;8.60;5.50;;;22.00;73.10;;;;;;6098264;23;20683;-95
2022/09/07 01:36:23;;;;;;;10.30;6.40;;;21.90;73.90;;;;;;6009924;23;20177;-95
2022/09/07 01:38:55;;;;;;;16.27;7.77;;;21.90;74.50;;;;;;6009323;23;20188;-93
2022/09/07 01:41:32;;;;;;;7.77;6.07;;;21.90;74.00;;;;;;6068679;23;20183;-94
2022/09/07 01:44:06;;;;;;;8.80;6.50;;;21.80;75.20;;;;;;6098731;23;20428;-95
2022/09/07 01:46:57;;;;;;;11.17;6.90;;;21.80;74.90;;;;;;6098064;23;20173;-93
2022/09/07 01:49:29;;;;;;;11.23;7.53;;;21.80;75.60;;;;;;6095693;23;20258;-94
2022/09/07 01:52:38;;;;;;;12.23;7.40;;;21.80;74.90;;;;;;6099671;23;20265;-94
2022/09/07 01:55:13;;;;;;;11.10;8.03;;;21.70;76.00;;;;;;6097901;23;20175;-94
2022/09/07 01:57:45;;;;;;;10.77;7.50;;;21.70;76.40;;;;;;6097755;23;20170;-94
2022/09/07 02:00:18;;;;;;;10.43;7.50;;;21.70;75.60;;;;;;6097568;23;20182;-94
2022/09/07 02:02:51;;;;;;;9.10;7.77;;;21.70;76.00;;;;;;6101871;23;20613;-95
2022/09/07 02:05:24;;;;;;;12.33;9.07;;;21.60;76.40;;;;;;6099328;23;20171;-94
2022/09/07 02:07:57;;;;;;;11.37;8.83;;;21.60;76.50;;;;;;6099870;23;20202;-94
2022/09/07 02:10:30;;;;;;;13.90;8.50;;;21.60;77.10;;;;;;6106174;23;20179;-92
2022/09/07 02:13:01;;;;;;;15.30;9.03;;;21.60;77.10;;;;;;6115313;23;20723;-94
2022/09/07 02:15:42;;;;;;;9.47;6.90;;;21.60;77.70;;;;;;6109346;23;20600;-95
2022/09/07 02:18:12;;;;;;;9.43;6.60;;;21.60;78.40;;;;;;6105275;23;20181;-94
2022/09/07 02:20:44;;;;;;;11.60;7.40;;;21.60;77.70;;;;;;6099100;23;20209;-95
2022/09/07 02:23:19;;;;;;;10.73;7.57;;;21.60;77.80;;;;;;6103034;23;20223;-93
2022/09/07 02:25:52;;;;;;;10.70;7.20;;;21.60;78.20;;;;;;6097442;23;20178;-93
2022/09/07 02:28:26;;;;;;;10.93;7.80;;;21.60;78.00;;;;;;6102963;23;20175;-93
2022/09/07 02:31:00;;;;;;;13.57;7.80;;;21.50;78.10;;;;;;6106088;23;20170;-95
2022/09/07 02:36:54;;;;;;;11.70;7.50;;;21.50;78.50;;;;;;6084796;23;20159;-94
2022/09/07 02:39:26;;;;;;;14.37;8.03;;;21.60;77.90;;;;;;6115434;23;20174;-94
2022/09/07 02:41:53;;;;;;;17.03;8.73;;;21.60;77.20;;;;;;6121834;23;20187;-96
2022/09/07 02:44:40;;;;;;;6.60;5.43;;;21.60;77.40;;;;;;6112041;23;20241;-95
2022/09/07 02:47:29;;;;;;;5.90;5.30;;;21.50;78.60;;;;;;6110313;23;20203;-93
2022/09/07 02:50:30;;;;;;;10.60;5.87;;;21.50;78.60;;;;;;6108218;23;20194;-95
2022/09/07 02:53:15;;;;;;;8.53;6.23;;;21.60;78.90;;;;;;6105971;23;20500;-94
2022/09/07 02:56:11;;;;;;;6.63;5.43;;;21.50;78.50;;;;;;6106683;23;20175;-94
2022/09/07 02:58:51;;;;;;;10.67;6.70;;;21.50;78.60;;;;;;6107548;23;20631;-94
2022/09/07 03:01:36;;;;;;;11.77;7.27;;;21.50;78.40;;;;;;6109008;23;20209;-94
2022/09/07 03:04:15;;;;;;;9.47;6.40;;;21.50;78.70;;;;;;6107523;23;20215;-94
2022/09/07 03:06:48;;;;;;;7.23;6.03;;;21.50;78.60;;;;;;6106148;23;20225;-95
2022/09/07 03:09:19;;;;;;;10.87;6.50;;;21.50;78.30;;;;;;6107911;23;20174;-95
2022/09/07 03:11:52;;;;;;;10.33;6.50;;;21.50;78.40;;;;;;6106328;23;20191;-94
2022/09/07 03:14:29;;;;;;;8.23;6.40;;;21.50;78.60;;;;;;6105509;23;20170;-95
2022/09/07 03:16:57;;;;;;;12.80;6.73;;;21.50;79.10;;;;;;6109523;23;20540;-93
2022/09/07 03:19:30;;;;;;;9.77;6.40;;;21.50;78.30;;;;;;6109682;23;20556;-94
2022/09/07 03:22:02;;;;;;;11.30;6.27;;;21.50;78.70;;;;;;6109043;23;20192;-94
2022/09/07 03:24:31;;;;;;;7.97;5.67;;;21.60;78.50;;;;;;6105111;23;20188;-94
2022/09/07 03:26:59;;;;;;;7.80;5.33;;;21.60;77.60;;;;;;6103735;23;20644;-96
2022/09/07 03:29:35;;;;;;;7.23;4.87;;;21.60;77.60;;;;;;6104435;23;20230;-93
2022/09/07 03:32:03;;;;;;;5.73;4.57;;;21.50;78.20;;;;;;6106253;23;20194;-94
2022/09/07 03:34:32;;;;;;;10.20;5.60;;;21.50;77.30;;;;;;6105524;23;20597;-93
2022/09/07 03:37:01;;;;;;;10.97;6.10;;;21.50;77.70;;;;;;6106155;23;20171;-93
2022/09/07 03:39:29;;;;;;;8.73;5.60;;;21.50;77.50;;;;;;6104250;23;20174;-94
2022/09/07 03:42:00;;;;;;;11.47;6.77;;;21.50;77.20;;;;;;6102307;23;20178;-94
2022/09/07 03:44:38;;;;;;;11.37;7.17;;;21.50;78.10;;;;;;6104402;23;20178;-94
2022/09/07 03:47:28;;;;;;;;;;;;;;;;;;;;;
2022/09/07 03:52:48;;;;;;;12.50;8.33;;;21.40;78.50;;;;;;6099024;23;20203;-93
2022/09/07 03:55:21;;;;;;;16.33;9.73;;;21.40;78.50;;;;;;6103754;23;20182;-90
2022/09/07 03:57:48;;;;;;;13.60;10.37;;;21.40;78.80;;;;;;6101522;23;20214;-93
2022/09/07 04:00:18;;;;;;;16.17;10.97;;;21.30;78.30;;;;;;6101303;23;20178;-94
2022/09/07 04:02:46;;;;;;;17.30;11.60;;;21.30;78.40;;;;;;6098160;23;20198;-91
2022/09/07 04:05:18;;;;;;;12.37;10.57;;;21.30;78.50;;;;;;6099599;23;20692;-94
2022/09/07 04:07:51;;;;;;;16.57;11.37;;;21.30;78.90;;;;;;6101727;23;20199;-93
2022/09/07 04:10:31;;;;;;;14.47;10.23;;;21.20;79.00;;;;;;6100076;23;20179;-92
2022/09/07 04:12:59;;;;;;;14.47;10.30;;;21.20;79.50;;;;;;6102922;23;20205;-94
2022/09/07 04:15:31;;;;;;;13.03;10.03;;;21.10;78.50;;;;;;6102503;23;20238;-94
2022/09/07 04:18:20;;;;;;;15.43;10.00;;;21.10;79.30;;;;;;6102725;23;20167;-94
2022/09/07 04:20:49;;;;;;;14.13;10.13;;;21.10;80.10;;;;;;6092926;23;20183;-93
2022/09/07 04:23:22;;;;;;;17.10;10.90;;;21.00;79.40;;;;;;6104578;23;20679;-93
2022/09/07 04:25:51;;;;;;;15.50;10.17;;;21.00;80.00;;;;;;6101195;23;20182;-93
2022/09/07 04:30:52;;;;;;;20.10;12.50;;;21.00;80.60;;;;;;6109224;23;20213;-94
2022/09/07 04:33:22;;;;;;;16.87;11.93;;;20.90;80.10;;;;;;6112748;23;20198;-92
2022/09/07 04:35:52;;;;;;;18.57;12.23;;;20.90;80.60;;;;;;6110129;23;20163;-92
2022/09/07 04:38:23;;;;;;;17.80;12.60;;;20.90;80.80;;;;;;6103740;23;20178;-93
2022/09/07 04:40:50;;;;;;;18.43;13.60;;;20.80;80.60;;;;;;6075725;23;20179;-93
2022/09/07 04:43:19;;;;;;;22.33;14.17;;;20.80;80.50;;;;;;6101902;23;20574;-93
2022/09/07 04:45:47;;;;;;;21.50;14.50;;;20.80;80.70;;;;;;6076836;23;20204;-93
2022/09/07 04:48:26;;;;;;;17.97;14.27;;;20.80;82.20;;;;;;6075525;23;20180;-93
2022/09/07 04:50:55;;;;;;;21.27;14.80;;;20.70;82.20;;;;;;6073963;23;20228;-93
2022/09/07 04:53:25;;;;;;;23.27;16.13;;;20.70;81.40;;;;;;6079805;23;20207;-94
2022/09/07 04:55:52;;;;;;;18.53;15.10;;;20.70;82.10;;;;;;6076780;23;20234;-92
2022/09/07 04:58:31;;;;;;;28.20;17.07;;;20.60;81.30;;;;;;6103502;23;20680;-92
2022/09/07 05:01:01;;;;;;;27.40;17.80;;;20.60;82.50;;;;;;6102469;23;20167;-93
2022/09/07 05:03:29;;;;;;;27.10;16.83;;;20.60;82.10;;;;;;6064800;23;20171;-91
2022/09/07 05:05:57;;;;;;;30.00;17.87;;;20.60;81.60;;;;;;6092038;23;20175;-91
2022/09/07 05:08:28;;;;;;;33.13;18.17;;;20.60;82.10;;;;;;6088024;23;20263;-92
2022/09/07 05:10:57;;;;;;;28.63;17.53;;;20.60;82.60;;;;;;6090709;23;20187;-91
2022/09/07 05:13:25;;;;;;;26.40;17.57;;;20.60;82.30;;;;;;6090405;23;20211;-92
2022/09/07 05:15:52;;;;;;;28.67;17.93;;;20.60;82.40;;;;;;6092259;23;20174;-91
2022/09/07 05:18:22;;;;;;;25.60;17.57;;;20.60;81.90;;;;;;6092195;23;20226;-93
2022/09/07 05:20:49;;;;;;;27.40;17.20;;;20.60;82.80;;;;;;6093413;23;20218;-92
2022/09/07 05:23:17;;;;;;;32.73;19.63;;;20.50;82.00;;;;;;6089747;23;20171;-92
2022/09/07 05:25:47;;;;;;;28.70;17.37;;;20.50;82.50;;;;;;6091291;23;20566;-91
2022/09/07 05:28:14;;;;;;;30.30;18.13;;;20.50;82.90;;;;;;6094138;23;20178;-92
2022/09/07 05:30:54;;;;;;;31.43;18.33;;;20.50;82.50;;;;;;6094541;23;20261;-94
2022/09/07 05:33:22;;;;;;;42.67;21.30;;;20.50;83.80;;;;;;6070123;23;20202;-94
2022/09/07 05:35:56;;;;;;;25.77;17.90;;;20.50;82.70;;;;;;6096910;23;20171;-93
2022/09/07 05:38:26;;;;;;;31.77;19.73;;;20.40;83.40;;;;;;6096911;23;20909;-92
2022/09/07 05:40:57;;;;;;;24.60;17.50;;;20.40;83.60;;;;;;6097188;23;20179;-92
2022/09/07 05:43:25;;;;;;;26.37;18.47;;;20.40;83.80;;;;;;6099807;23;20179;-92
2022/09/07 05:45:55;;;;;;;31.17;18.73;;;20.40;83.40;;;;;;6097222;23;20505;-93
2022/09/07 05:48:23;;;;;;;33.13;19.77;;;20.40;84.20;;;;;;6069999;23;20265;-92
2022/09/07 05:50:51;;;;;;;26.53;18.20;;;20.40;84.30;;;;;;6094094;23;20170;-91
2022/09/07 05:53:19;;;;;;;31.13;20.93;;;20.40;84.00;;;;;;6094719;23;20202;-92
2022/09/07 05:55:48;;;;;;;30.27;19.20;;;20.40;84.00;;;;;;6095218;23;20179;-92
2022/09/07 05:58:17;;;;;;;32.13;19.90;;;20.40;84.40;;;;;;6104921;23;20700;-90
2022/09/07 06:00:46;;;;;;;31.00;18.97;;;20.40;84.60;;;;;;6103433;23;20231;-92
2022/09/07 06:03:13;;;;;;;29.27;19.27;;;20.40;84.40;;;;;;6095491;23;20179;-92
2022/09/07 06:05:40;;;;;;;35.77;19.63;;;20.40;84.00;;;;;;6097057;23;20174;-92
2022/09/07 06:10:56;;;;;;;32.60;20.30;;;20.40;84.80;;;;;;6071767;23;20629;-93
2022/09/07 06:13:26;;;;;;;36.53;21.13;;;20.40;85.50;;;;;;6102056;23;20202;-92
2022/09/07 06:16:42;;;;;;;31.57;19.87;;;20.40;85.40;;;;;;6105181;23;20199;-90
2022/09/07 06:22:51;;;;;;;25.33;18.07;;;20.40;86.00;;;;;;6109130;23;20158;-92
2022/09/07 06:25:19;;;;;;;31.87;20.07;;;20.40;85.10;;;;;;6106711;23;20240;-92
2022/09/07 06:27:48;;;;;;;33.07;19.40;;;20.40;85.50;;;;;;6104665;23;20171;-92
2022/09/07 06:30:18;;;;;;;30.40;18.57;;;20.40;85.70;;;;;;6104207;23;20514;-93
2022/09/07 06:32:46;;;;;;;29.50;19.20;;;20.50;86.30;;;;;;6072471;23;20261;-91
2022/09/07 06:35:14;;;;;;;28.73;17.70;;;20.50;86.10;;;;;;6103176;23;20171;-91
2022/09/07 06:37:47;;;;;;;24.10;17.20;;;20.50;86.10;;;;;;6100991;23;20234;-92
2022/09/07 06:40:14;;;;;;;24.40;16.17;;;20.50;86.60;;;;;;6106744;23;20179;-90
2022/09/07 06:42:44;;;;;;;25.10;16.87;;;20.50;86.00;;;;;;6106699;23;20175;-91
2022/09/07 06:45:12;;;;;;;30.70;17.57;;;20.50;86.50;;;;;;6106702;23;20280;-91
2022/09/07 06:47:42;;;;;;;28.33;16.73;;;20.60;86.30;;;;;;6106487;23;20175;-91
2022/09/07 06:50:11;;;;;;;27.07;17.20;;;20.60;86.50;;;;;;6090667;23;20175;-92
2022/09/07 06:52:45;;;;;;;24.97;14.90;;;20.60;86.40;;;;;;6104593;23;20219;-91
2022/09/07 06:55:13;;;;;;;25.47;14.87;;;20.70;87.20;;;;;;6103769;23;20175;-89
2022/09/07 06:57:41;;;;;;;24.03;14.60;;;20.70;86.80;;;;;;6106212;23;20179;-91
2022/09/07 07:00:10;;;;;;;17.73;12.53;;;20.70;87.00;;;;;;6101994;23;20184;-90
2022/09/07 07:02:40;;;;;;;19.13;11.87;;;20.80;86.90;;;;;;6104974;23;20233;-91
2022/09/07 07:05:10;;;;;;;24.47;13.83;;;20.80;87.10;;;;;;6103212;23;20171;-92
2022/09/07 07:07:43;;;;;;;20.47;11.10;;;20.80;87.10;;;;;;6102706;23;20223;-91
2022/09/07 07:12:57;;;;;;;12.13;8.60;;;20.90;86.70;;;;;;6082580;23;20226;-92
2022/09/07 07:15:37;;;;;;;15.30;8.63;;;20.90;87.30;;;;;;6103465;23;20211;-92
2022/09/07 07:18:08;;;;;;;16.37;9.73;;;20.90;87.40;;;;;;6102751;23;20167;-93
2022/09/07 07:20:36;;;;;;;17.80;8.77;;;21.00;87.00;;;;;;6105122;23;20175;-92
2022/09/07 07:23:08;;;;;;;16.27;8.30;;;21.00;86.80;;;;;;6102699;23;20178;-96
2022/09/07 07:25:38;;;;;;;11.73;6.53;;;21.00;86.80;;;;;;6104790;23;20616;-93
2022/09/07 07:28:05;;;;;;;12.50;6.50;;;21.10;86.90;;;;;;6101277;23;20270;-93
2022/09/07 07:30:35;;;;;;;13.10;5.70;;;21.10;86.70;;;;;;6103750;23;20503;-95
2022/09/07 07:33:03;;;;;;;14.40;6.20;;;21.10;86.60;;;;;;6099012;23;20222;-93
2022/09/07 07:35:32;;;;;;;14.80;6.47;;;21.20;86.20;;;;;;6098595;23;20628;-94
2022/09/07 07:38:01;;;;;;;9.03;4.73;;;21.20;86.50;;;;;;6100928;23;20242;-94
2022/09/07 07:40:29;;;;;;;13.00;5.90;;;21.30;85.90;;;;;;6104687;23;20179;-93
2022/09/07 07:42:58;;;;;;;21.80;5.40;;;21.40;85.80;;;;;;6097103;23;20187;-92
2022/09/07 07:45:25;;;;;;;12.27;5.47;;;21.40;86.20;;;;;;6100695;23;20167;-93
2022/09/07 07:47:56;;;;;;;10.27;4.67;;;21.40;85.80;;;;;;6098573;23;20219;-94
2022/09/07 07:51:00;;;;;;;10.87;4.27;;;21.50;85.50;;;;;;6102079;23;20206;-94
2022/09/07 07:53:29;;;;;;;10.57;4.33;;;21.60;86.00;;;;;;6100082;23;20186;-94
2022/09/07 07:55:59;;;;;;;16.63;5.10;;;21.70;85.00;;;;;;6097601;23;20171;-94
2022/09/07 07:58:33;;;;;;;14.63;4.17;;;21.70;84.20;;;;;;6100628;23;20206;-93
2022/09/07 08:01:09;;;;;;;9.67;3.37;;;21.70;84.30;;;;;;6098272;23;20168;-92
2022/09/07 08:03:38;;;;;;;11.30;4.27;;;21.80;83.40;;;;;;6098927;23;20553;-93
2022/09/07 08:08:52;;;;;;;15.10;4.00;;;21.90;83.30;;;;;;6110363;23;20374;-95
2022/09/07 08:11:33;;;;;;;17.73;6.20;;;21.90;83.10;;;;;;6117879;23;20183;-95
2022/09/07 08:14:01;;;;;;;10.37;3.50;;;22.00;82.70;;;;;;6116778;23;20213;-93
2022/09/07 08:16:28;;;;;;;13.00;4.17;;;22.00;83.20;;;;;;6109033;23;20230;-93
2022/09/07 08:18:58;;;;;;;6.63;2.73;;;22.10;82.60;;;;;;6106690;23;20179;-93
2022/09/07 08:21:26;;;;;;;9.73;3.37;;;22.10;82.00;;;;;;6102041;23;20175;-92
2022/09/07 08:23:56;;;;;;;7.73;3.50;;;22.20;81.70;;;;;;6099003;23;20572;-94
2022/09/07 08:26:23;;;;;;;9.43;3.50;;;22.20;81.70;;;;;;6101302;23;20171;-94
2022/09/07 08:28:53;;;;;;;8.20;2.70;;;22.20;81.20;;;;;;6097923;23;20639;-94
2022/09/07 08:31:31;;;;;;;8.07;3.37;;;22.30;80.80;;;;;;6095398;23;20174;-94
2022/09/07 08:34:00;;;;;;;10.30;3.23;;;22.30;81.10;;;;;;6097461;23;20194;-93
2022/09/07 08:36:48;;;;;;;8.07;3.23;;;22.40;80.80;;;;;;6095948;23;20194;-95
2022/09/07 08:39:16;;;;;;;12.50;4.53;;;22.50;80.40;;;;;;6101621;23;20188;-93
2022/09/07 08:42:09;;;;;;;18.13;5.07;;;22.50;79.70;;;;;;6112078;23;20167;-92
2022/09/07 08:45:01;;;;;;;14.10;2.97;;;22.60;79.80;;;;;;6101065;23;20260;-94
2022/09/07 08:47:42;;;;;;;11.53;3.77;;;22.70;79.20;;;;;;6100012;23;20652;-96
2022/09/07 08:53:28;;;;;;;12.97;4.73;;;22.90;80.10;;;;;;6064835;23;20181;-95
2022/09/07 08:56:08;;;;;;;12.77;3.60;;;23.10;79.00;;;;;;6094809;23;20690;-94
2022/09/07 08:58:44;;;;;;;10.17;3.47;;;23.20;79.20;;;;;;6108872;23;20192;-94
2022/09/07 09:01:13;;;;;;;10.27;4.53;;;23.40;78.00;;;;;;6117764;23;20174;-94
2022/09/07 09:07:20;;;;;;;14.47;5.10;;;23.80;77.40;;;;;;6084328;23;20629;-95
2022/09/07 09:10:12;;;;;;;10.23;2.70;;;24.00;76.30;;;;;;6098045;23;21152;-94
2022/09/07 09:12:55;;;;;;;11.87;3.60;;;24.10;75.20;;;;;;6096630;23;20178;-96
2022/09/07 09:15:31;;;;;;;11.30;3.73;;;24.40;74.30;;;;;;6096972;23;20202;-94
2022/09/07 09:21:15;;;;;;;10.30;4.10;;;24.60;72.20;;;;;;6077077;23;20182;-94
2022/09/07 09:23:52;;;;;;;13.67;4.10;;;24.80;72.70;;;;;;6095155;23;20216;-96
2022/09/07 09:26:27;;;;;;;13.87;3.07;;;24.90;72.50;;;;;;6095721;23;20186;-96
2022/09/07 09:28:56;;;;;;;12.90;4.67;;;25.00;71.40;;;;;;6091138;23;20171;-95
2022/09/07 09:31:35;;;;;;;12.57;4.20;;;25.20;71.10;;;;;;6093432;23;20197;-92
2022/09/07 09:35:09;;;;;;;14.97;3.77;;;25.20;70.10;;;;;;6094026;23;20198;-93
2022/09/07 09:37:39;;;;;;;14.00;3.63;;;25.40;69.80;;;;;;6087727;23;20178;-95
2022/09/07 09:43:07;;;;;;;16.30;4.40;;;25.60;68.80;;;;;;6087255;23;20218;-93
2022/09/07 09:45:46;;;;;;;9.90;3.70;;;25.70;69.00;;;;;;6093587;23;20222;-93
2022/09/07 09:51:22;;;;;;;11.83;3.87;;;25.80;67.80;;;;;;6006929;23;20177;-94
2022/09/07 09:54:01;;;;;;;12.93;3.77;;;25.90;67.30;;;;;;6078163;23;20281;-91
2022/09/07 09:56:40;;;;;;;11.13;3.73;;;26.00;67.60;;;;;;6094128;23;20171;-94
2022/09/07 09:59:36;;;;;;;13.10;4.60;;;26.10;67.00;;;;;;6093867;23;20175;-95
2022/09/07 10:02:28;;;;;;;10.20;2.83;;;26.10;66.30;;;;;;6027606;23;20179;-95
2022/09/07 10:04:58;;;;;;;11.87;3.87;;;26.20;65.80;;;;;;6087118;23;20218;-90
2022/09/07 10:07:30;;;;;;;11.67;4.27;;;26.30;66.20;;;;;;6094733;23;20199;-93
2022/09/07 10:09:58;;;;;;;10.97;3.27;;;26.40;65.30;;;;;;6098113;23;20226;-92
2022/09/07 10:12:29;;;;;;;9.17;2.80;;;26.40;65.60;;;;;;6097860;23;20175;-93
2022/09/07 10:15:00;;;;;;;11.83;3.73;;;26.40;64.40;;;;;;6097472;23;20322;-92
2022/09/07 10:17:40;;;;;;;17.23;4.80;;;26.50;64.00;;;;;;6097968;23;20234;-93
2022/09/07 10:20:33;;;;;;;13.63;4.30;;;26.50;63.70;;;;;;6095799;23;20170;-94
2022/09/07 10:26:20;;;;;;;11.87;3.87;;;26.60;64.10;;;;;;6076972;23;20274;-94
2022/09/07 10:31:25;;;;;;;13.60;4.57;;;26.80;63.60;;;;;;6087020;23;20667;-94
2022/09/07 10:34:06;;;;;;;17.83;5.13;;;26.90;64.10;;;;;;6095725;23;20171;-92
2022/09/07 10:36:41;;;;;;;14.10;4.20;;;27.00;63.00;;;;;;6095438;23;20168;-91
2022/09/07 10:39:15;;;;;;;11.07;3.30;;;27.10;62.80;;;;;;6093487;23;20170;-94
2022/09/07 10:41:55;;;;;;;13.93;4.20;;;27.30;62.20;;;;;;6094592;23;20178;-93
2022/09/07 10:44:40;;;;;;;8.70;3.40;;;27.30;62.10;;;;;;6096341;23;20210;-93
2022/09/07 10:47:18;;;;;;;9.07;2.57;;;27.40;62.00;;;;;;6100239;23;20182;-94
2022/09/07 10:49:54;;;;;;;8.67;2.70;;;27.50;61.60;;;;;;6108221;23;20171;-96
2022/09/07 10:53:01;;;;;;;;;;;;;;;;;;;;;
2022/09/07 10:55:44;;;;;;;6.47;2.50;;;27.80;60.60;;;;;;6103471;23;20206;-93
2022/09/07 10:58:23;;;;;;;12.20;3.13;;;27.80;59.40;;;;;;6101903;23;20199;-94
2022/09/07 11:01:08;;;;;;;12.73;3.93;;;27.90;58.90;;;;;;6099388;23;20230;-94
2022/09/07 11:07:29;;;;;;;11.57;3.57;;;27.90;58.30;;;;;;6073769;23;20199;-94
2022/09/07 11:13:23;;;;;;;6.77;2.57;;;27.80;57.90;;;;;;6073199;23;20186;-95
2022/09/07 11:18:53;;;;;;;13.00;4.00;;;27.80;58.00;;;;;;6117036;23;20207;-95
2022/09/07 11:21:42;;;;;;;8.07;2.10;;;27.80;57.90;;;;;;6118245;23;20178;-96
2022/09/07 11:27:47;;;;;;;5.03;2.00;;;27.90;57.60;;;;;;6112775;23;20175;-96
2022/09/07 11:33:22;;;;;;;9.27;3.60;;;27.90;57.80;;;;;;6091955;23;20517;-92
2022/09/07 11:35:55;;;;;;;14.17;4.77;;;27.90;57.60;;;;;;6102112;23;20187;-95
2022/09/07 11:38:33;;;;;;;11.37;3.67;;;27.90;57.80;;;;;;6101726;23;20171;-96
2022/09/07 11:44:25;;;;;;;10.20;3.93;;;28.00;57.40;;;;;;6091319;23;20624;-95
2022/09/07 11:47:28;;;;;;;8.50;2.70;;;28.00;57.40;;;;;;6101946;23;20238;-96
2022/09/07 11:49:55;;;;;;;16.77;4.83;;;28.00;56.70;;;;;;6094811;23;20729;-96
2022/09/07 11:52:51;;;;;;;12.27;3.43;;;28.00;57.10;;;;;;6097712;23;20179;-96
2022/09/07 11:55:24;;;;;;;8.93;3.43;;;28.00;56.70;;;;;;6098202;23;20206;-96
2022/09/07 11:58:43;;;;;;;7.27;2.73;;;28.00;56.40;;;;;;6072165;23;20235;-93
2022/09/07 12:01:24;;;;;;;11.70;3.53;;;28.00;56.00;;;;;;6097215;23;20183;-95
2022/09/07 12:04:41;;;;;;;7.30;2.90;;;28.00;56.30;;;;;;6100261;23;20171;-95
2022/09/07 12:07:46;;;;;;;11.50;3.27;;;28.00;56.20;;;;;;6011555;23;20216;-96
2022/09/07 12:10:39;;;;;;;11.37;3.30;;;27.90;56.20;;;;;;6011234;23;20169;-95
2022/09/07 12:13:37;;;;;;;9.30;3.33;;;27.90;56.10;;;;;;6007131;23;20177;-93
2022/09/07 12:16:10;;;;;;;12.03;3.13;;;27.90;55.90;;;;;;6006906;23;20520;-93
2022/09/07 12:19:04;;;;;;;9.03;2.70;;;27.90;55.90;;;;;;6008299;23;20169;-95
2022/09/07 12:22:22;;;;;;;9.13;2.73;;;27.90;55.20;;;;;;6050259;23;20182;-93
2022/09/07 12:24:56;;;;;;;12.83;2.57;;;27.90;55.40;;;;;;6097577;23;20230;-94
2022/09/07 12:27:42;;;;;;;7.60;2.63;;;27.90;55.30;;;;;;6095402;23;20258;-95
2022/09/07 12:31:00;;;;;;;7.37;2.23;;;27.80;54.60;;;;;;6094907;23;20222;-94
2022/09/07 12:33:36;;;;;;;11.87;3.10;;;27.80;54.90;;;;;;6102181;23;20186;-93
2022/09/07 12:36:48;;;;;;;8.20;3.40;;;27.90;55.30;;;;;;6112437;23;20191;-94
2022/09/07 12:39:27;;;;;;;5.27;2.30;;;27.90;54.80;;;;;;6101993;23;20525;-95
2022/09/07 12:48:38;;;;;;;10.17;2.90;;;27.90;54.50;;;;;;6098034;23;20197;-94
2022/09/07 12:51:25;;;;;;;5.57;2.03;;;28.00;54.20;;;;;;6097352;23;20171;-92
2022/09/07 12:54:05;;;;;;;8.73;2.50;;;28.00;53.70;;;;;;6096237;23;20171;-95
2022/09/07 12:56:48;;;;;;;7.93;2.37;;;28.00;54.30;;;;;;6094737;23;20229;-95
2022/09/07 12:59:49;;;;;;;6.23;2.47;;;28.00;54.20;;;;;;6096227;23;20179;-96
2022/09/07 13:02:42;;;;;;;6.50;2.40;;;28.20;54.20;;;;;;6027133;23;20174;-93
2022/09/07 13:05:23;;;;;;;9.67;2.87;;;28.20;53.40;;;;;;6097546;23;20179;-94
2022/09/07 13:08:22;;;;;;;5.03;1.97;;;28.30;53.30;;;;;;6098017;23;20225;-94
2022/09/07 13:10:50;;;;;;;9.07;3.30;;;28.40;54.00;;;;;;6075635;23;20179;-94
2022/09/07 13:13:24;;;;;;;9.43;3.30;;;28.50;53.60;;;;;;6096689;23;20754;-94
2022/09/07 13:16:27;;;;;;;8.43;3.23;;;28.60;53.10;;;;;;6093963;23;20699;-95
2022/09/07 13:18:58;;;;;;;10.10;3.70;;;28.70;53.00;;;;;;6095405;23;20189;-92
2022/09/07 13:21:58;;;;;;;11.23;2.90;;;28.80;53.00;;;;;;6096061;23;20199;-95
2022/09/07 13:24:54;;;;;;;6.60;2.57;;;28.80;52.20;;;;;;6058173;23;20632;-94
2022/09/07 13:27:43;;;;;;;9.57;3.33;;;28.80;52.00;;;;;;6087615;23;20180;-93
2022/09/07 13:30:45;;;;;;;4.63;1.73;;;28.80;51.20;;;;;;6081138;23;20168;-94
2022/09/07 13:33:47;;;;;;;6.10;2.17;;;28.80;51.40;;;;;;6069103;23;20175;-91
2022/09/07 13:36:39;;;;;;;6.37;2.63;;;28.80;51.50;;;;;;6066970;23;20191;-94
2022/09/07 13:39:16;;;;;;;7.10;2.47;;;28.70;51.70;;;;;;6056853;23;20175;-94
2022/09/07 13:41:49;;;;;;;7.23;2.73;;;28.70;51.50;;;;;;6067476;23;20187;-93
2022/09/07 13:44:24;;;;;;;5.20;2.03;;;28.70;52.10;;;;;;6067794;23;20179;-93
2022/09/07 13:47:08;;;;;;;8.03;3.10;;;28.70;51.70;;;;;;6068924;23;20238;-92
2022/09/07 13:49:53;;;;;;;10.30;3.50;;;28.70;51.80;;;;;;6068338;23;20179;-94
2022/09/07 13:52:37;;;;;;;8.10;2.70;;;28.70;52.10;;;;;;6067924;23;20171;-93
2022/09/07 13:55:20;;;;;;;6.73;2.53;;;28.70;51.70;;;;;;6069202;23;20195;-92
2022/09/07 14:06:35;;;;;;;9.50;2.80;;;28.60;51.90;;;;;;6076740;23;20198;-93
2022/09/07 14:09:12;;;;;;;6.57;2.17;;;28.60;51.90;;;;;;6069865;23;20617;-94
2022/09/07 14:11:42;;;;;;;4.90;1.87;;;28.50;51.50;;;;;;6069965;23;20187;-95
2022/09/07 14:17:07;;;;;;;5.97;2.00;;;28.50;51.50;;;;;;6059822;23;20175;-94
2022/09/07 14:19:38;;;;;;;8.53;2.83;;;28.40;51.30;;;;;;6074490;23;20495;-93
2022/09/07 14:22:11;;;;;;;12.63;3.90;;;28.40;51.30;;;;;;6081575;23;20576;-93
2022/09/07 14:24:42;;;;;;;5.77;1.63;;;28.40;51.30;;;;;;6073693;23;20234;-93
2022/09/07 14:27:23;;;;;;;5.97;2.10;;;28.30;51.00;;;;;;6071871;23;20176;-91
2022/09/07 14:29:52;;;;;;;7.10;2.60;;;28.30;50.90;;;;;;6067922;23;20171;-94
2022/09/07 14:32:22;;;;;;;7.33;2.40;;;28.20;51.10;;;;;;6068936;23;20178;-93
2022/09/07 14:34:56;;;;;;;6.80;2.50;;;28.20;51.20;;;;;;6068722;23;20175;-93
2022/09/07 14:37:24;;;;;;;9.50;3.67;;;28.10;51.10;;;;;;6069111;23;20191;-93
2022/09/07 14:39:52;;;;;;;8.83;3.10;;;28.00;51.30;;;;;;6075315;23;20167;-93
2022/09/07 14:42:23;;;;;;;7.17;2.53;;;28.00;51.40;;;;;;6071215;23;20167;-94
2022/09/07 14:45:32;;;;;;;7.03;2.53;;;27.90;51.50;;;;;;6072676;23;20216;-92
2022/09/07 14:48:00;;;;;;;8.20;3.17;;;27.90;51.10;;;;;;6066147;23;20179;-92
2022/09/07 14:50:32;;;;;;;10.57;3.07;;;27.90;51.30;;;;;;6068104;23;20171;-93
2022/09/07 14:53:07;;;;;;;10.67;3.33;;;27.90;51.00;;;;;;6066460;23;20976;-93
2022/09/07 14:56:03;;;;;;;8.77;2.63;;;27.80;50.90;;;;;;6067314;23;20198;-93